Terminal Aerodrome Forecast
Issued by NWS

Home | Current Version | Previous Version | Text Only | Print | Product List | Glossary On
Versions: 1 2 3 4 5 6 7 8 9 10 11 12
813
FTUS45 KMSO 240520
TAFSMN
TAF
KSMN 240520Z 2406/2506 00000KT P6SM SKC
     FM242000 30010G20KT P6SM BKN100
     FM250000 32012G25KT P6SM VCTS BKN100CB
     FM250200 VRB06KT P6SM SCT150
      AMD NOT SKED=

USA.gov is the U.S. government's official web portal to all federal, state and local government web resources and services.